Time;durP1;ratioP1;P1;durP2;ratioP2;P2;SDS_P1;SDS_P2;PMS_P1;PMS_P2;Temp;Humidity;BMP_temperature;BMP_pressure;BME280_temperature;BME280_humidity;BME280_pressure;Samples;Min_cycle;Max_cycle;Signal;HPM_P1;HPM_P2
2022/03/07 00:00:49;;;;;;;3.30;0.30;;;;;;;7.46;71.65;102436.22;7399062;19;20344;-81
2022/03/07 00:03:17;;;;;;;6.22;0.25;;;;;;;7.46;71.50;102423.13;7389469;19;20390;-81
2022/03/07 00:05:44;;;;;;;5.95;0.40;;;;;;;7.43;72.44;102426.75;7385140;19;20030;-81
2022/03/07 00:08:13;;;;;;;4.20;0.40;;;;;;;7.46;72.85;102429.22;7388514;19;20018;-81
2022/03/07 00:11:00;;;;;;;5.22;0.30;;;;;;;7.51;71.83;102432.41;7388015;19;20033;-81
2022/03/07 00:13:27;;;;;;;1.85;0.50;;;;;;;7.53;73.65;102435.75;7388239;19;20071;-79
2022/03/07 00:15:54;;;;;;;5.45;0.40;;;;;;;7.62;76.39;102434.31;7388111;19;20410;-80
2022/03/07 00:18:21;;;;;;;3.88;0.32;;;;;;;7.62;74.39;102431.72;7387111;19;20429;-79
2022/03/07 00:20:48;;;;;;;2.45;0.80;;;;;;;7.57;73.65;102433.78;7387614;19;20070;-80
2022/03/07 00:23:16;;;;;;;9.18;0.47;;;;;;;7.56;72.55;102435.56;7389578;19;20018;-80
2022/03/07 00:25:43;;;;;;;5.65;0.30;;;;;;;7.59;71.13;102435.38;7390079;19;20089;-80
2022/03/07 00:28:11;;;;;;;5.95;0.30;;;;;;;7.58;71.71;102424.97;7385799;19;20006;-79
2022/03/07 00:30:38;;;;;;;5.18;0.38;;;;;;;7.50;69.76;102435.09;7388821;19;20347;-80
2022/03/07 00:33:05;;;;;;;4.43;0.38;;;;;;;7.47;70.16;102432.66;7386607;19;20033;-80
2022/03/07 00:35:32;;;;;;;5.13;0.43;;;;;;;7.44;70.11;102432.84;7387849;19;20477;-79
2022/03/07 00:37:59;;;;;;;2.50;0.25;;;;;;;7.41;69.71;102438.28;7389680;19;20027;-81
2022/03/07 00:40:26;;;;;;;4.25;0.65;;;;;;;7.40;70.47;102426.97;7390146;19;20023;-81
2022/03/07 00:42:53;;;;;;;5.47;0.28;;;;;;;7.41;70.86;102433.88;7387030;19;20035;-81
2022/03/07 00:45:21;;;;;;;5.22;0.77;;;;;;;7.42;70.53;102435.53;7385694;19;20027;-80
2022/03/07 00:47:55;;;;;;;6.70;0.57;;;;;;;7.46;69.23;102431.00;7385535;19;20451;-82
2022/03/07 00:50:42;;;;;;;6.97;0.50;;;;;;;7.47;69.02;102430.88;7385933;19;20014;-81
2022/03/07 00:53:13;;;;;;;7.07;0.30;;;;;;;7.51;69.69;102431.53;7383618;19;20006;-81
2022/03/07 00:55:40;;;;;;;4.32;0.32;;;;;;;7.53;68.68;102433.13;7388666;19;20014;-81
2022/03/07 00:58:08;;;;;;;3.88;0.40;;;;;;;7.54;68.24;102424.34;7388719;19;20010;-79
2022/03/07 01:00:36;;;;;;;5.03;1.10;;;;;;;7.54;68.92;102419.09;7389270;19;20011;-80
2022/03/07 01:03:10;;;;;;;9.05;0.32;;;;;;;7.57;67.72;102428.53;7384410;19;20394;-80
2022/03/07 01:05:39;;;;;;;5.15;0.38;;;;;;;7.56;68.23;102425.09;7386220;19;20463;-81
2022/03/07 01:08:08;;;;;;;4.22;0.50;;;;;;;7.57;68.53;102418.06;7386634;19;20119;-80
2022/03/07 01:10:36;;;;;;;1.50;0.30;;;;;;;7.57;68.92;102433.78;7385755;19;20014;-80
2022/03/07 01:13:04;;;;;;;1.95;0.20;;;;;;;7.56;69.33;102422.47;7388559;19;20070;-82
2022/03/07 01:15:32;;;;;;;8.45;0.50;;;;;;;7.57;68.07;102426.75;7387538;19;20515;-80
2022/03/07 01:18:00;;;;;;;6.82;0.68;;;;;;;7.60;68.64;102429.22;7386400;19;20032;-79
2022/03/07 01:20:28;;;;;;;1.55;0.20;;;;;;;7.58;67.80;102423.22;7385293;19;20017;-81
2022/03/07 01:22:55;;;;;;;5.30;0.98;;;;;;;7.58;69.24;102419.75;7387145;19;20119;-81
2022/03/07 01:25:22;;;;;;;5.78;0.40;;;;;;;7.58;69.14;102424.97;7384621;19;20074;-80
2022/03/07 01:27:49;;;;;;;4.03;0.40;;;;;;;7.57;67.63;102418.06;7385348;19;20021;-80
2022/03/07 01:30:17;;;;;;;6.20;0.30;;;;;;;7.58;67.93;102417.97;7384591;19;20011;-81
2022/03/07 01:32:44;;;;;;;3.15;0.20;;;;;;;7.54;67.52;102416.47;7386354;19;20021;-81
2022/03/07 01:35:11;;;;;;;5.60;0.35;;;;;;;7.50;68.52;102417.59;7383552;19;20087;-79
2022/03/07 01:37:38;;;;;;;2.97;0.22;;;;;;;7.46;69.39;102416.13;7384848;19;20015;-81
2022/03/07 01:40:06;;;;;;;4.43;0.30;;;;;;;7.49;68.52;102408.06;7384392;19;20097;-81
2022/03/07 01:42:35;;;;;;;6.35;0.68;;;;;;;7.49;68.87;102409.84;7383887;19;20007;-81
2022/03/07 01:45:12;;;;;;;6.28;0.43;;;;;;;7.52;68.37;102410.47;7383439;19;20029;-80
2022/03/07 01:47:40;;;;;;;5.22;0.50;;;;;;;7.49;68.02;102401.97;7383891;19;20352;-80
2022/03/07 01:50:11;;;;;;;3.20;0.30;;;;;;;7.51;68.27;102407.97;7385835;19;20014;-80
2022/03/07 01:52:40;;;;;;;5.15;0.25;;;;;;;7.49;68.74;102415.06;7387382;19;20036;-80
2022/03/07 01:55:10;;;;;;;4.72;0.30;;;;;;;7.48;69.14;102401.13;7386601;19;20538;-80
2022/03/07 01:57:38;;;;;;;7.05;0.20;;;;;;;7.46;70.24;102403.03;7384013;19;20006;-80
2022/03/07 02:00:09;;;;;;;3.92;0.25;;;;;;;7.43;69.81;102391.88;7382077;19;20083;-80
2022/03/07 02:02:36;;;;;;;9.68;1.23;;;;;;;7.41;70.47;102392.00;7382008;19;20109;-80
2022/03/07 02:05:04;;;;;;;4.32;0.30;;;;;;;7.40;71.45;102392.91;7382474;19;20338;-79
2022/03/07 02:07:31;;;;;;;4.70;0.30;;;;;;;7.38;71.78;102391.31;7386151;19;20007;-82
2022/03/07 02:09:59;;;;;;;6.53;0.50;;;;;;;7.32;71.31;102387.28;7384484;19;20006;-80
2022/03/07 02:12:26;;;;;;;3.65;0.30;;;;;;;7.29;71.91;102377.00;7384691;19;20018;-81
2022/03/07 02:14:53;;;;;;;5.85;0.30;;;;;;;7.23;72.10;102377.38;7386639;19;20034;-80
2022/03/07 02:17:20;;;;;;;6.97;0.32;;;;;;;7.22;72.39;102370.47;7382597;19;20006;-81
2022/03/07 02:19:47;;;;;;;3.78;0.20;;;;;;;7.24;73.14;102379.91;7384533;19;20519;-80
2022/03/07 02:22:16;;;;;;;4.60;0.30;;;;;;;7.25;73.52;102368.53;7383389;19;20361;-81
2022/03/07 02:24:44;;;;;;;6.22;0.45;;;;;;;7.25;72.51;102360.66;7384975;19;20023;-81
2022/03/07 02:27:12;;;;;;;4.70;0.30;;;;;;;7.26;72.59;102358.88;7381758;19;20012;-80
2022/03/07 02:29:39;;;;;;;5.22;1.17;;;;;;;7.25;74.05;102346.72;7384111;19;20033;-80
2022/03/07 02:32:08;;;;;;;2.72;0.30;;;;;;;7.23;74.26;102345.97;7386067;19;20018;-80
2022/03/07 02:34:35;;;;;;;8.77;0.65;;;;;;;7.20;74.64;102338.31;7381689;19;20010;-80
2022/03/07 02:37:03;;;;;;;6.35;0.60;;;;;;;7.19;75.05;102328.78;7383916;19;20020;-80
2022/03/07 02:39:30;;;;;;;5.90;0.30;;;;;;;7.24;75.24;102329.34;7386370;19;20015;-79
2022/03/07 02:41:57;;;;;;;7.18;0.60;;;;;;;7.25;74.88;102331.03;7383137;19;20500;-80
2022/03/07 02:44:24;;;;;;;7.32;1.08;;;;;;;7.21;75.39;102322.50;7381184;19;20030;-80
2022/03/07 02:46:51;;;;;;;2.80;0.88;;;;;;;7.24;74.45;102316.25;7380076;19;20017;-79
2022/03/07 02:49:18;;;;;;;6.47;0.30;;;;;;;7.15;74.10;102317.66;7382413;19;20022;-79
2022/03/07 02:51:45;;;;;;;5.82;0.30;;;;;;;7.14;74.61;102315.97;7381077;19;20113;-80
2022/03/07 02:54:13;;;;;;;4.82;0.32;;;;;;;7.16;74.59;102310.66;7384507;19;20028;-79
2022/03/07 02:56:40;;;;;;;8.55;1.08;;;;;;;7.13;74.55;102301.22;7383464;19;20343;-79
2022/03/07 02:59:07;;;;;;;5.22;0.63;;;;;;;7.10;75.09;102306.63;7384991;19;20015;-80
2022/03/07 03:01:34;;;;;;;5.57;0.30;;;;;;;7.11;75.07;102291.78;7384786;19;20010;-81
2022/03/07 03:04:01;;;;;;;6.78;0.30;;;;;;;7.12;74.43;102294.28;7382752;19;20014;-80
2022/03/07 03:06:28;;;;;;;3.50;0.30;;;;;;;7.15;74.66;102278.41;7383857;19;20011;-80
2022/03/07 03:08:55;;;;;;;5.13;0.30;;;;;;;7.15;74.42;102281.03;7384406;19;20095;-79
2022/03/07 03:11:22;;;;;;;3.78;0.30;;;;;;;7.16;74.73;102276.63;7385015;19;20121;-80
2022/03/07 03:13:50;;;;;;;3.58;0.43;;;;;;;7.16;75.10;102285.31;7380159;19;20023;-80
2022/03/07 03:16:17;;;;;;;9.73;0.55;;;;;;;7.14;74.22;102268.88;7385923;19;20115;-79
2022/03/07 03:18:44;;;;;;;5.40;0.40;;;;;;;7.08;75.49;102274.47;7384610;19;20011;-79
2022/03/07 03:21:11;;;;;;;9.20;0.40;;;;;;;7.03;75.77;102268.69;7382602;19;20029;-80
2022/03/07 03:23:39;;;;;;;6.05;0.75;;;;;;;7.09;76.87;102273.53;7383631;19;20444;-79
2022/03/07 03:26:06;;;;;;;6.82;0.47;;;;;;;7.14;75.27;102268.03;7378942;19;20317;-80
2022/03/07 03:28:33;;;;;;;5.97;0.65;;;;;;;7.18;74.79;102265.13;7380191;19;20019;-81
2022/03/07 03:31:00;;;;;;;9.77;0.40;;;;;;;7.20;74.90;102263.25;7387293;19;20010;-80
2022/03/07 03:33:27;;;;;;;6.30;0.30;;;;;;;7.23;75.75;102259.59;7385585;19;20026;-80
2022/03/07 03:35:56;;;;;;;7.63;0.52;;;;;;;7.24;75.23;102262.13;7392684;19;20049;-80
2022/03/07 03:38:23;;;;;;;3.92;0.40;;;;;;;7.25;75.32;102269.06;7387622;19;20027;-80
2022/03/07 03:40:50;;;;;;;6.03;0.45;;;;;;;7.26;75.05;102264.66;7391143;19;20011;-80
2022/03/07 03:43:17;;;;;;;4.50;1.38;;;;;;;7.28;74.54;102260.16;7389695;19;20137;-80
2022/03/07 03:45:44;;;;;;;8.38;0.40;;;;;;;7.18;75.64;102262.50;7391989;19;20083;-80
2022/03/07 03:48:11;;;;;;;5.03;0.32;;;;;;;7.18;75.78;102264.28;7387634;19;20340;-80
2022/03/07 03:50:39;;;;;;;8.82;0.60;;;;;;;7.16;75.96;102263.56;7387848;19;20023;-80
2022/03/07 03:53:06;;;;;;;6.80;0.68;;;;;;;7.17;77.12;102252.13;7387536;19;20329;-79
2022/03/07 03:55:33;;;;;;;5.13;0.40;;;;;;;7.17;76.98;102255.59;7386793;19;20049;-80
2022/03/07 03:58:02;;;;;;;6.05;0.50;;;;;;;7.20;76.87;102263.25;7385651;19;20094;-80
2022/03/07 04:00:30;;;;;;;11.20;0.60;;;;;;;7.25;76.51;102244.66;7386206;19;20472;-79
2022/03/07 04:02:57;;;;;;;10.40;0.50;;;;;;;7.27;76.16;102245.38;7384025;19;20006;-79
2022/03/07 04:05:25;;;;;;;10.35;1.15;;;;;;;7.26;76.53;102246.34;7389228;19;20015;-80
2022/03/07 04:07:52;;;;;;;9.02;0.90;;;;;;;7.25;76.16;102250.72;7387279;19;20072;-80
2022/03/07 04:10:19;;;;;;;6.80;0.60;;;;;;;7.21;76.44;102251.84;7387151;19;20011;-79
2022/03/07 04:12:46;;;;;;;10.27;0.90;;;;;;;7.18;76.65;102253.81;7384520;19;20074;-79
2022/03/07 04:15:13;;;;;;;4.63;0.80;;;;;;;7.15;76.78;102254.84;7385753;19;20515;-79
2022/03/07 04:17:42;;;;;;;3.35;0.35;;;;;;;7.16;77.76;102256.50;7385457;19;20043;-79
2022/03/07 04:20:10;;;;;;;7.03;0.82;;;;;;;7.16;77.31;102255.69;7391102;19;20346;-79
2022/03/07 04:22:38;;;;;;;10.35;0.57;;;;;;;7.14;78.03;102254.94;7384831;19;20007;-79
2022/03/07 04:25:06;;;;;;;6.50;0.35;;;;;;;7.17;78.73;102262.59;7387943;19;20405;-79
2022/03/07 04:27:34;;;;;;;5.82;1.48;;;;;;;7.10;78.63;102262.16;7384405;19;20410;-79
2022/03/07 04:30:04;;;;;;;6.22;1.42;;;;;;;7.14;79.45;102258.41;7384492;19;20456;-79
2022/03/07 04:32:33;;;;;;;4.57;0.70;;;;;;;7.19;80.42;102253.72;7388560;19;20014;-80
2022/03/07 04:35:03;;;;;;;8.73;0.50;;;;;;;7.18;79.80;102261.66;7383347;19;20007;-80
2022/03/07 04:37:31;;;;;;;6.47;0.40;;;;;;;7.14;78.64;102263.63;7384985;19;20007;-80
2022/03/07 04:39:59;;;;;;;3.10;0.20;;;;;;;7.16;77.23;102269.59;7386234;19;20456;-80
2022/03/07 04:42:27;;;;;;;6.80;0.43;;;;;;;7.16;78.32;102256.50;7385029;19;20461;-80
2022/03/07 04:44:54;;;;;;;7.03;0.43;;;;;;;7.14;77.59;102254.94;7385971;19;20037;-81
2022/03/07 04:47:21;;;;;;;5.72;0.40;;;;;;;7.14;78.96;102258.41;7381067;19;20029;-80
2022/03/07 04:49:48;;;;;;;6.97;0.40;;;;;;;7.09;78.80;102250.00;7386370;19;20486;-80
2022/03/07 04:52:15;;;;;;;5.70;0.45;;;;;;;7.09;78.61;102252.63;7383280;19;20419;-80
2022/03/07 04:54:42;;;;;;;7.50;0.60;;;;;;;7.11;78.07;102258.56;7387918;19;20438;-80
2022/03/07 04:57:09;;;;;;;6.57;0.60;;;;;;;7.15;76.99;102254.00;7386828;19;20007;-79
2022/03/07 04:59:36;;;;;;;5.70;0.40;;;;;;;7.14;76.89;102252.31;7384153;19;20010;-80
2022/03/07 05:02:03;;;;;;;4.95;0.20;;;;;;;7.16;76.66;102253.09;7386404;19;20010;-79
2022/03/07 05:04:31;;;;;;;6.93;0.30;;;;;;;7.14;76.79;102257.56;7383359;19;20014;-80
2022/03/07 05:06:58;;;;;;;5.55;0.35;;;;;;;7.10;77.23;102261.31;7384742;19;20082;-80
2022/03/07 05:09:25;;;;;;;4.93;0.82;;;;;;;7.04;77.36;102259.91;7390766;19;20352;-81
2022/03/07 05:11:52;;;;;;;4.95;0.60;;;;;;;7.01;78.46;102254.03;7385091;19;20071;-81
2022/03/07 05:14:19;;;;;;;11.60;0.30;;;;;;;7.02;77.75;102242.59;7384547;19;20022;-81
2022/03/07 05:16:46;;;;;;;4.68;0.40;;;;;;;7.03;79.16;102239.91;7386574;19;20404;-81
2022/03/07 05:19:13;;;;;;;7.60;0.40;;;;;;;7.02;78.19;102240.00;7387385;19;20290;-81
2022/03/07 05:21:40;;;;;;;7.78;0.40;;;;;;;7.03;78.10;102242.53;7384075;19;20470;-80
2022/03/07 05:24:09;;;;;;;2.90;0.28;;;;;;;7.03;77.87;102241.69;7384758;19;20014;-80
2022/03/07 05:26:36;;;;;;;9.35;0.55;;;;;;;7.03;78.71;102233.81;7381705;19;20014;-80
2022/03/07 05:29:05;;;;;;;6.78;0.30;;;;;;;7.03;78.71;102237.28;7382353;19;20006;-80
2022/03/07 05:31:32;;;;;;;6.72;0.60;;;;;;;7.06;78.64;102231.03;7384719;19;20021;-81
2022/03/07 05:34:00;;;;;;;5.43;0.30;;;;;;;7.05;78.48;102234.59;7385931;19;20015;-80
2022/03/07 05:36:27;;;;;;;3.50;0.30;;;;;;;6.99;79.31;102232.34;7383762;19;20011;-80
2022/03/07 05:38:54;;;;;;;7.20;0.30;;;;;;;7.00;79.91;102240.09;7383471;19;20127;-80
2022/03/07 05:41:21;;;;;;;3.20;0.38;;;;;;;7.01;79.84;102238.34;7386852;19;20019;-80
2022/03/07 05:43:49;;;;;;;4.32;0.30;;;;;;;7.06;78.34;102238.88;7381862;19;20018;-81
2022/03/07 05:46:16;;;;;;;5.53;0.32;;;;;;;7.09;78.67;102236.91;7382034;19;20377;-80
2022/03/07 05:48:43;;;;;;;15.98;2.45;;;;;;;7.14;78.01;102236.63;7386322;19;20046;-79
2022/03/07 05:51:11;;;;;;;3.25;0.45;;;;;;;7.14;78.95;102236.63;7384910;19;20406;-81
2022/03/07 05:53:38;;;;;;;7.78;0.60;;;;;;;7.09;79.78;102236.91;7386438;19;20057;-80
2022/03/07 05:56:06;;;;;;;7.03;0.57;;;;;;;7.11;79.21;102229.78;7385861;19;20099;-80
2022/03/07 05:58:33;;;;;;;9.35;0.30;;;;;;;7.13;78.10;102233.16;7383130;19;20234;-79
2022/03/07 06:01:00;;;;;;;6.40;0.30;;;;;;;7.15;79.04;102233.06;7385174;19;20122;-79
2022/03/07 06:03:28;;;;;;;4.50;0.40;;;;;;;7.16;78.22;102238.19;7382898;19;20027;-79
2022/03/07 06:05:55;;;;;;;6.65;0.60;;;;;;;7.14;79.10;102232.22;7382653;19;20010;-81
2022/03/07 06:08:23;;;;;;;9.20;1.30;;;;;;;7.15;78.36;102227.84;7384892;19;20074;-81
2022/03/07 06:10:50;;;;;;;7.82;0.30;;;;;;;7.18;78.10;102228.47;7382913;19;20609;-80
2022/03/07 06:13:19;;;;;;;4.00;0.43;;;;;;;7.18;78.79;102219.78;7383838;19;20003;-81
2022/03/07 06:15:46;;;;;;;6.28;0.40;;;;;;;7.15;79.41;102233.06;7385702;19;20006;-80
2022/03/07 06:18:14;;;;;;;7.97;0.40;;;;;;;7.18;77.95;102233.72;7384214;19;20074;-80
2022/03/07 06:20:41;;;;;;;8.07;0.32;;;;;;;7.20;78.16;102228.38;7383844;19;20006;-80
2022/03/07 06:23:08;;;;;;;11.70;0.50;;;;;;;7.13;78.29;102233.16;7386607;19;20328;-81
2022/03/07 06:25:35;;;;;;;5.50;0.40;;;;;;;7.12;78.48;102228.84;7384537;19;20031;-80
2022/03/07 06:28:04;;;;;;;4.70;0.70;;;;;;;7.13;79.67;102232.31;7380829;19;20014;-80
2022/03/07 06:30:31;;;;;;;5.55;0.50;;;;;;;7.15;78.79;102226.06;7384934;19;20352;-80
2022/03/07 06:32:58;;;;;;;5.40;0.50;;;;;;;7.17;79.24;102226.78;7381005;19;20097;-80
2022/03/07 06:35:25;;;;;;;5.90;0.30;;;;;;;7.16;79.00;102230.34;7383320;19;20014;-80
2022/03/07 06:37:53;;;;;;;4.78;0.40;;;;;;;7.14;79.04;102224.38;7381929;19;20014;-80
2022/03/07 06:40:22;;;;;;;5.75;0.30;;;;;;;7.13;79.25;102230.53;7381491;19;20014;-80
2022/03/07 06:42:50;;;;;;;9.35;0.40;;;;;;;7.22;80.34;102226.50;7382374;19;20010;-81
2022/03/07 06:45:17;;;;;;;5.20;0.35;;;;;;;7.23;78.90;102215.09;7381844;19;20201;-79
2022/03/07 06:47:46;;;;;;;10.88;0.40;;;;;;;7.22;78.13;102235.19;7381695;19;20551;-80
2022/03/07 06:50:16;;;;;;;7.45;0.43;;;;;;;7.22;77.49;102229.13;7384579;19;20040;-80
2022/03/07 06:52:43;;;;;;;5.80;0.63;;;;;;;7.17;77.90;102231.19;7382304;19;20030;-80
2022/03/07 06:55:13;;;;;;;7.93;0.50;;;;;;;7.08;79.56;102232.59;7381114;19;20573;-81
2022/03/07 06:57:42;;;;;;;3.70;0.30;;;;;;;7.09;80.47;102217.75;7380346;19;20017;-80
2022/03/07 07:00:13;;;;;;;6.50;0.40;;;;;;;7.07;81.17;102220.44;7381101;19;20007;-80
2022/03/07 07:02:42;;;;;;;3.85;0.22;;;;;;;7.05;80.92;102219.72;7385207;19;20010;-80
2022/03/07 07:05:10;;;;;;;7.18;0.30;;;;;;;7.04;80.38;102220.66;7384304;19;20146;-80
2022/03/07 07:07:37;;;;;;;4.45;0.22;;;;;;;7.02;80.22;102217.28;7388207;19;20014;-79
2022/03/07 07:10:06;;;;;;;6.65;0.30;;;;;;;6.92;79.44;102210.94;7388463;19;20218;-80
2022/03/07 07:12:34;;;;;;;4.97;0.30;;;;;;;6.94;80.13;102209.09;7390338;19;20571;-79
2022/03/07 07:15:02;;;;;;;6.13;0.35;;;;;;;6.98;79.38;102204.50;7391476;19;20026;-80
2022/03/07 07:17:29;;;;;;;5.07;0.55;;;;;;;7.01;79.86;102212.16;7387185;19;20006;-81
2022/03/07 07:19:56;;;;;;;3.65;0.30;;;;;;;6.99;79.93;102201.78;7387072;19;20539;-79
2022/03/07 07:22:23;;;;;;;2.60;0.52;;;;;;;7.06;80.63;102204.88;7391965;19;20024;-80
2022/03/07 07:24:53;;;;;;;9.13;0.35;;;;;;;7.16;79.56;102198.13;7389515;19;20074;-80
2022/03/07 07:27:21;;;;;;;2.47;0.50;;;;;;;7.19;78.99;102213.63;7389578;19;20029;-81
2022/03/07 07:29:52;;;;;;;4.85;0.65;;;;;;;7.20;79.01;102203.06;7393424;19;20439;-83
2022/03/07 07:32:20;;;;;;;9.10;0.47;;;;;;;7.21;78.70;102209.13;7393505;19;20021;-80
2022/03/07 07:34:50;;;;;;;3.97;0.57;;;;;;;7.21;78.85;102211.75;7391658;19;20336;-81
2022/03/07 07:37:17;;;;;;;3.40;0.50;;;;;;;7.25;79.60;102208.84;7388186;19;20108;-80
2022/03/07 07:39:46;;;;;;;4.45;0.38;;;;;;;7.29;79.91;102207.72;7390586;19;20015;-80
2022/03/07 07:42:13;;;;;;;2.63;0.40;;;;;;;7.27;78.90;102203.50;7387411;19;20017;-80
2022/03/07 07:44:41;;;;;;;7.70;0.45;;;;;;;7.29;79.24;102204.25;7388653;19;20010;-81
2022/03/07 07:47:09;;;;;;;7.22;0.40;;;;;;;7.27;80.16;102204.34;7390262;19;20118;-80
2022/03/07 07:49:37;;;;;;;4.28;0.50;;;;;;;7.24;80.51;102198.47;7388294;19;20029;-80
2022/03/07 07:52:05;;;;;;;3.55;0.60;;;;;;;7.31;79.79;102202.38;7387030;19;20037;-81
2022/03/07 07:54:33;;;;;;;10.55;0.57;;;;;;;7.39;77.93;102209.72;7388269;19;20014;-81
2022/03/07 07:57:02;;;;;;;7.10;0.35;;;;;;;7.35;76.92;102206.47;7387262;19;20276;-81
2022/03/07 07:59:29;;;;;;;5.45;0.50;;;;;;;7.35;77.00;102210.88;7385999;19;20007;-81
2022/03/07 08:01:56;;;;;;;3.97;0.45;;;;;;;7.31;77.01;102213.66;7389065;19;20025;-80
2022/03/07 08:04:23;;;;;;;8.60;0.50;;;;;;;7.29;77.47;102214.72;7387223;19;20046;-79
2022/03/07 08:06:51;;;;;;;5.68;0.40;;;;;;;7.28;78.64;102216.50;7388156;19;20015;-81
2022/03/07 08:09:17;;;;;;;5.88;0.82;;;;;;;7.29;79.17;102212.09;7387763;19;20011;-81
2022/03/07 08:11:45;;;;;;;3.40;0.50;;;;;;;7.30;78.82;102209.41;7386998;19;20022;-82
2022/03/07 08:14:12;;;;;;;5.47;0.40;;;;;;;7.36;77.51;102215.19;7386499;19;20014;-81
2022/03/07 08:16:39;;;;;;;4.45;0.47;;;;;;;7.44;77.33;102212.91;7386624;19;20472;-83
2022/03/07 08:19:15;;;;;;;3.70;0.40;;;;;;;7.49;77.53;102211.66;7387846;19;20010;-80
2022/03/07 08:21:42;;;;;;;5.03;0.60;;;;;;;7.59;76.64;102212.75;7386087;19;20541;-81
2022/03/07 08:24:09;;;;;;;5.35;0.50;;;;;;;7.69;75.72;102221.69;7386692;19;20011;-80
2022/03/07 08:26:36;;;;;;;6.07;0.60;;;;;;;7.77;74.26;102217.75;7388126;19;20014;-80
2022/03/07 08:29:03;;;;;;;8.88;0.63;;;;;;;7.78;74.85;102220.25;7388043;19;20015;-80
2022/03/07 08:31:30;;;;;;;3.53;0.45;;;;;;;7.72;73.67;102223.25;7390444;19;20018;-80
2022/03/07 08:33:57;;;;;;;5.65;0.45;;;;;;;7.82;74.51;102213.91;7385205;19;20033;-82
2022/03/07 08:36:24;;;;;;;10.77;0.80;;;;;;;7.90;73.96;102216.84;7393247;19;20021;-80
2022/03/07 08:38:51;;;;;;;7.93;0.40;;;;;;;8.01;73.11;102214.34;7394225;19;20014;-79
2022/03/07 08:41:46;;;;;;;8.73;0.50;;;;;;;8.07;73.74;102208.72;7391622;19;20066;-79
2022/03/07 08:44:13;;;;;;;10.40;0.57;;;;;;;8.09;73.15;102208.59;7387643;19;20014;-80
2022/03/07 08:46:41;;;;;;;6.25;1.30;;;;;;;8.10;72.55;102213.72;7387703;19;20006;-82
2022/03/07 08:49:08;;;;;;;4.82;0.45;;;;;;;8.09;72.33;102208.59;7384122;19;20499;-81
2022/03/07 08:51:37;;;;;;;7.75;1.75;;;;;;;8.11;71.25;102211.97;7385969;19;20078;-81
2022/03/07 08:54:04;;;;;;;4.60;0.30;;;;;;;8.16;70.78;102215.94;7389364;19;20478;-79
2022/03/07 08:56:31;;;;;;;5.80;0.40;;;;;;;8.18;72.14;102220.25;7389310;19;20133;-79
2022/03/07 08:58:58;;;;;;;8.00;0.98;;;;;;;8.23;71.86;102205.06;7386694;19;20003;-80
2022/03/07 09:01:25;;;;;;;4.28;0.35;;;;;;;8.34;70.99;102210.44;7389313;19;20025;-80
2022/03/07 09:03:53;;;;;;;9.68;0.82;;;;;;;8.47;69.57;102216.53;7365672;19;20014;-80
2022/03/07 09:06:20;;;;;;;6.03;0.40;;;;;;;8.58;70.42;102219.25;7386697;19;20014;-79
2022/03/07 09:08:47;;;;;;;9.77;0.50;;;;;;;8.69;65.99;102198.34;7385385;19;20007;-79
2022/03/07 09:11:18;;;;;;;4.47;0.30;;;;;;;8.67;65.07;102199.41;7389383;19;20070;-81
2022/03/07 09:13:45;;;;;;;6.18;0.20;;;;;;;8.67;64.46;102199.41;7384135;19;20090;-80
2022/03/07 09:16:14;;;;;;;6.22;0.50;;;;;;;8.65;63.32;102206.53;7387264;19;20464;-80
2022/03/07 09:18:41;;;;;;;5.35;0.40;;;;;;;8.65;63.21;102206.53;7389270;19;20464;-79
2022/03/07 09:21:09;;;;;;;3.30;0.40;;;;;;;8.65;64.93;102203.91;7390196;19;20018;-80
2022/03/07 09:23:38;;;;;;;5.82;0.60;;;;;;;8.68;65.06;102193.22;7392027;19;20010;-80
2022/03/07 09:26:09;;;;;;;6.68;0.85;;;;;;;8.63;67.96;102200.59;7388038;19;20010;-81
2022/03/07 09:28:43;;;;;;;6.43;0.30;;;;;;;8.69;64.79;102195.72;7384235;19;20013;-80
2022/03/07 09:31:11;;;;;;;5.15;0.57;;;;;;;8.68;64.40;102203.72;7387637;19;20542;-80
2022/03/07 09:33:38;;;;;;;8.70;0.40;;;;;;;8.65;62.67;102196.03;7384712;19;20010;-80
2022/03/07 09:36:06;;;;;;;3.83;0.30;;;;;;;8.55;61.40;102191.44;7388102;19;20018;-79
2022/03/07 09:38:36;;;;;;;2.95;0.30;;;;;;;8.58;60.91;102190.41;7395592;19;20015;-80
2022/03/07 09:41:04;;;;;;;3.28;0.35;;;;;;;8.61;62.34;102186.72;7397040;19;20390;-80
2022/03/07 09:43:36;;;;;;;3.97;0.50;;;;;;;8.64;60.74;102174.22;7390587;19;20469;-78
2022/03/07 09:46:04;;;;;;;4.00;0.30;;;;;;;8.71;62.81;102182.50;7391447;19;20010;-80
2022/03/07 09:48:31;;;;;;;4.70;0.30;;;;;;;8.76;60.34;102181.25;7379937;19;20019;-80
2022/03/07 09:50:58;;;;;;;5.55;0.35;;;;;;;8.81;59.92;102178.28;7384788;19;20037;-80
2022/03/07 09:53:29;;;;;;;2.35;0.75;;;;;;;8.78;60.83;102166.25;7386913;19;20010;-81
2022/03/07 09:55:56;;;;;;;2.90;0.82;;;;;;;8.73;58.47;102184.09;7383823;19;20007;-80
2022/03/07 09:58:23;;;;;;;2.80;0.35;;;;;;;8.76;58.37;102169.91;7384597;19;20571;-79
2022/03/07 10:00:50;;;;;;;9.68;0.85;;;;;;;8.71;58.70;102172.84;7385656;19;20014;-80
2022/03/07 10:03:18;;;;;;;6.65;0.50;;;;;;;8.73;60.12;102181.47;7383085;19;20025;-80
2022/03/07 10:05:48;;;;;;;3.90;0.60;;;;;;;8.71;60.55;102169.38;7386202;19;20368;-80
2022/03/07 10:08:27;;;;;;;4.45;0.98;;;;;;;8.70;61.99;102171.16;7386515;19;20018;-80
2022/03/07 10:10:55;;;;;;;3.90;1.42;;;;;;;8.70;63.46;102167.72;7386521;19;20015;-80
2022/03/07 10:13:24;;;;;;;3.90;1.00;;;;;;;8.73;62.78;102172.75;7384012;19;20007;-80
2022/03/07 10:16:01;;;;;;;8.93;1.40;;;;;;;8.73;62.98;102167.50;7387823;19;20440;-79
2022/03/07 10:18:29;;;;;;;4.35;1.23;;;;;;;8.70;61.98;102168.56;7383773;19;20018;-80
2022/03/07 10:21:00;;;;;;;7.75;1.58;;;;;;;8.74;61.56;102169.16;7385559;19;20018;-80
2022/03/07 10:23:27;;;;;;;5.38;1.33;;;;;;;8.74;61.20;102171.78;7385114;19;20014;-79
2022/03/07 10:26:06;;;;;;;9.10;1.35;;;;;;;8.75;61.49;102163.81;7386485;19;20432;-81
2022/03/07 10:28:38;;;;;;;8.75;2.28;;;;;;;8.78;61.99;102166.25;7383489;19;20010;-80
2022/03/07 10:31:16;;;;;;;7.55;1.75;;;;;;;8.74;62.31;102156.88;7385250;19;20422;-80
2022/03/07 10:33:44;;;;;;;7.03;1.65;;;;;;;8.72;62.06;102163.19;7384879;19;20023;-80
2022/03/07 10:36:13;;;;;;;5.63;1.55;;;;;;;8.63;61.99;102155.97;7384781;19;20018;-81
2022/03/07 10:38:43;;;;;;;5.38;2.08;;;;;;;8.68;61.37;102151.25;7384625;19;20090;-80
2022/03/07 10:41:10;;;;;;;4.72;1.88;;;;;;;8.63;61.69;102151.59;7389238;19;20074;-80
2022/03/07 10:43:48;;;;;;;5.00;1.40;;;;;;;8.63;60.75;102148.13;7394490;19;20078;-80
2022/03/07 10:46:24;;;;;;;6.50;1.10;;;;;;;8.63;60.39;102148.97;7392533;19;20011;-80
2022/03/07 10:48:52;;;;;;;5.68;1.70;;;;;;;8.64;59.97;102149.75;7386210;19;20095;-80
2022/03/07 10:51:21;;;;;;;4.82;1.83;;;;;;;8.63;60.05;102135.84;7388359;19;20017;-80
2022/03/07 10:53:49;;;;;;;5.18;1.83;;;;;;;8.66;59.73;102140.84;7395384;19;20014;-79
2022/03/07 10:56:17;;;;;;;5.35;1.50;;;;;;;8.58;58.43;102128.25;7391740;19;20498;-79
2022/03/07 10:58:47;;;;;;;4.53;1.58;;;;;;;8.61;58.34;102140.34;7390299;19;20010;-80
2022/03/07 11:01:14;;;;;;;3.67;1.27;;;;;;;8.64;58.51;102132.25;7394045;19;20019;-79
2022/03/07 11:03:45;;;;;;;5.65;1.63;;;;;;;8.66;58.41;102126.91;7390938;19;20506;-81
2022/03/07 11:06:12;;;;;;;6.07;1.73;;;;;;;8.65;57.06;102141.78;7396888;19;20033;-80
2022/03/07 11:08:43;;;;;;;3.30;1.42;;;;;;;8.69;56.81;102127.50;7390501;19;20045;-80
2022/03/07 11:11:13;;;;;;;3.47;1.17;;;;;;;8.75;56.67;102129.72;7390219;19;20003;-80
2022/03/07 11:13:42;;;;;;;2.75;1.08;;;;;;;8.58;56.06;102128.25;7394322;19;20022;-79
2022/03/07 11:16:12;;;;;;;2.78;1.20;;;;;;;8.66;56.29;102119.03;7390101;19;20049;-81
2022/03/07 11:18:42;;;;;;;2.33;1.10;;;;;;;8.57;55.88;102112.66;7389847;19;20057;-79
2022/03/07 11:21:09;;;;;;;5.95;1.67;;;;;;;8.55;57.08;102120.63;7391197;19;20023;-78
2022/03/07 11:23:36;;;;;;;4.90;1.27;;;;;;;8.63;56.43;102116.63;7394484;19;20887;-79
2022/03/07 11:26:09;;;;;;;2.22;1.13;;;;;;;8.69;56.83;102111.78;7393661;19;20569;-80
2022/03/07 11:28:36;;;;;;;6.00;1.02;;;;;;;8.78;54.66;102111.13;7389375;19;20021;-81
2022/03/07 11:31:03;;;;;;;5.43;1.92;;;;;;;8.82;54.89;102102.09;7398160;19;20015;-79
2022/03/07 11:33:34;;;;;;;3.00;1.15;;;;;;;8.83;54.56;102103.78;7393268;19;20118;-81
2022/03/07 11:36:06;;;;;;;3.60;1.30;;;;;;;8.96;53.51;102094.06;7395119;19;20014;-80
2022/03/07 11:38:57;;;;;;;4.70;1.40;;;;;;;9.06;54.85;102096.00;7391568;19;20011;-80